sensor_id;sensor_type;location;lat;lon;timestamp;P1;durP1;ratioP1;P2;durP2;ratioP2
28455;SDS011;15682;56.742;38.866;2023-07-13T00:01:48;5.1;;;2.3;;
28455;SDS011;15682;56.742;38.866;2023-07-13T00:03:48;4.6;;;2.2;;
28455;SDS011;15682;56.742;38.866;2023-07-13T00:05:56;3.0;;;2.0;;
28455;SDS011;15682;56.742;38.866;2023-07-13T00:07:49;4.0;;;2.3;;
28455;SDS011;15682;56.742;38.866;2023-07-13T00:09:49;4.6;;;2.1;;
28455;SDS011;15682;56.742;38.866;2023-07-13T00:11:50;4.8;;;2.2;;
28455;SDS011;15682;56.742;38.866;2023-07-13T00:13:49;5.9;;;2.2;;
28455;SDS011;15682;56.742;38.866;2023-07-13T00:15:49;5.4;;;2.1;;
28455;SDS011;15682;56.742;38.866;2023-07-13T00:17:50;5.6;;;2.2;;
28455;SDS011;15682;56.742;38.866;2023-07-13T00:19:50;4.5;;;1.8;;
28455;SDS011;15682;56.742;38.866;2023-07-13T00:21:50;4.5;;;2.1;;
28455;SDS011;15682;56.742;38.866;2023-07-13T00:23:50;5.8;;;2.3;;
28455;SDS011;15682;56.742;38.866;2023-07-13T00:25:51;7.7;;;2.2;;
28455;SDS011;15682;56.742;38.866;2023-07-13T00:27:51;5.7;;;2.0;;
28455;SDS011;15682;56.742;38.866;2023-07-13T00:29:52;5.1;;;2.2;;
28455;SDS011;15682;56.742;38.866;2023-07-13T00:31:51;4.6;;;2.0;;
28455;SDS011;15682;56.742;38.866;2023-07-13T00:33:52;6.0;;;2.0;;
28455;SDS011;15682;56.742;38.866;2023-07-13T00:35:53;5.5;;;2.1;;
28455;SDS011;15682;56.742;38.866;2023-07-13T00:37:52;3.7;;;1.9;;
28455;SDS011;15682;56.742;38.866;2023-07-13T00:39:53;9.1;;;2.1;;
28455;SDS011;15682;56.742;38.866;2023-07-13T00:41:53;5.2;;;2.1;;
28455;SDS011;15682;56.742;38.866;2023-07-13T00:43:53;3.0;;;1.9;;
28455;SDS011;15682;56.742;38.866;2023-07-13T00:47:54;4.6;;;2.2;;
28455;SDS011;15682;56.742;38.866;2023-07-13T00:49:54;5.1;;;2.2;;
28455;SDS011;15682;56.742;38.866;2023-07-13T00:51:55;4.1;;;1.9;;
28455;SDS011;15682;56.742;38.866;2023-07-13T00:53:56;4.0;;;2.1;;
28455;SDS011;15682;56.742;38.866;2023-07-13T00:55:55;6.1;;;2.2;;
28455;SDS011;15682;56.742;38.866;2023-07-13T00:57:55;3.3;;;1.8;;
28455;SDS011;15682;56.742;38.866;2023-07-13T00:59:57;5.3;;;1.8;;
28455;SDS011;15682;56.742;38.866;2023-07-13T01:01:55;3.5;;;2.0;;
28455;SDS011;15682;56.742;38.866;2023-07-13T01:03:56;4.3;;;2.0;;
28455;SDS011;15682;56.742;38.866;2023-07-13T01:05:56;6.6;;;2.0;;
28455;SDS011;15682;56.742;38.866;2023-07-13T01:07:56;5.4;;;2.0;;
28455;SDS011;15682;56.742;38.866;2023-07-13T01:09:56;5.5;;;2.1;;
28455;SDS011;15682;56.742;38.866;2023-07-13T01:11:57;3.3;;;1.9;;
28455;SDS011;15682;56.742;38.866;2023-07-13T01:13:57;3.6;;;2.1;;
28455;SDS011;15682;56.742;38.866;2023-07-13T01:15:58;5.3;;;2.3;;
28455;SDS011;15682;56.742;38.866;2023-07-13T01:17:58;5.2;;;2.3;;
28455;SDS011;15682;56.742;38.866;2023-07-13T01:19:58;4.6;;;2.2;;
28455;SDS011;15682;56.742;38.866;2023-07-13T01:21:58;6.6;;;2.0;;
28455;SDS011;15682;56.742;38.866;2023-07-13T01:23:58;4.7;;;2.1;;
28455;SDS011;15682;56.742;38.866;2023-07-13T01:25:59;6.8;;;1.9;;
28455;SDS011;15682;56.742;38.866;2023-07-13T01:27:59;7.5;;;2.1;;
28455;SDS011;15682;56.742;38.866;2023-07-13T01:29:59;3.3;;;1.7;;
28455;SDS011;15682;56.742;38.866;2023-07-13T01:31:59;3.8;;;1.9;;
28455;SDS011;15682;56.742;38.866;2023-07-13T01:34:00;5.2;;;2.0;;
28455;SDS011;15682;56.742;38.866;2023-07-13T01:36:00;4.4;;;2.1;;
28455;SDS011;15682;56.742;38.866;2023-07-13T01:38:00;4.2;;;2.3;;
28455;SDS011;15682;56.742;38.866;2023-07-13T01:40:00;5.1;;;1.9;;
28455;SDS011;15682;56.742;38.866;2023-07-13T01:42:01;6.1;;;2.1;;
28455;SDS011;15682;56.742;38.866;2023-07-13T01:44:01;3.6;;;1.9;;
28455;SDS011;15682;56.742;38.866;2023-07-13T01:46:01;4.8;;;1.8;;
28455;SDS011;15682;56.742;38.866;2023-07-13T01:48:01;6.0;;;2.1;;
28455;SDS011;15682;56.742;38.866;2023-07-13T01:50:02;3.2;;;1.9;;
28455;SDS011;15682;56.742;38.866;2023-07-13T01:52:02;4.3;;;2.0;;
28455;SDS011;15682;56.742;38.866;2023-07-13T01:54:02;3.0;;;1.7;;
28455;SDS011;15682;56.742;38.866;2023-07-13T01:56:03;4.7;;;2.1;;
28455;SDS011;15682;56.742;38.866;2023-07-13T01:58:03;3.7;;;2.0;;
28455;SDS011;15682;56.742;38.866;2023-07-13T02:00:04;3.6;;;1.9;;
28455;SDS011;15682;56.742;38.866;2023-07-13T02:02:03;3.6;;;1.9;;
28455;SDS011;15682;56.742;38.866;2023-07-13T02:04:04;3.7;;;2.0;;
28455;SDS011;15682;56.742;38.866;2023-07-13T02:06:04;6.4;;;2.0;;
28455;SDS011;15682;56.742;38.866;2023-07-13T02:08:04;2.8;;;1.7;;
28455;SDS011;15682;56.742;38.866;2023-07-13T02:10:05;4.6;;;1.8;;
28455;SDS011;15682;56.742;38.866;2023-07-13T02:12:05;3.6;;;1.8;;
28455;SDS011;15682;56.742;38.866;2023-07-13T02:14:05;4.2;;;1.8;;
28455;SDS011;15682;56.742;38.866;2023-07-13T02:16:05;3.8;;;1.8;;
28455;SDS011;15682;56.742;38.866;2023-07-13T02:18:05;3.1;;;1.7;;
28455;SDS011;15682;56.742;38.866;2023-07-13T02:20:06;3.5;;;1.7;;
28455;SDS011;15682;56.742;38.866;2023-07-13T02:22:06;4.5;;;2.0;;
28455;SDS011;15682;56.742;38.866;2023-07-13T02:24:06;3.7;;;1.7;;
28455;SDS011;15682;56.742;38.866;2023-07-13T02:26:06;4.0;;;1.8;;
28455;SDS011;15682;56.742;38.866;2023-07-13T02:28:07;3.1;;;1.7;;
28455;SDS011;15682;56.742;38.866;2023-07-13T02:30:07;4.7;;;1.8;;
28455;SDS011;15682;56.742;38.866;2023-07-13T02:32:07;3.8;;;2.1;;
28455;SDS011;15682;56.742;38.866;2023-07-13T02:34:08;4.5;;;1.9;;
28455;SDS011;15682;56.742;38.866;2023-07-13T02:36:08;3.0;;;1.7;;
28455;SDS011;15682;56.742;38.866;2023-07-13T02:38:08;4.2;;;2.0;;
28455;SDS011;15682;56.742;38.866;2023-07-13T02:40:09;4.2;;;1.8;;
28455;SDS011;15682;56.742;38.866;2023-07-13T02:42:09;4.2;;;1.8;;
28455;SDS011;15682;56.742;38.866;2023-07-13T02:44:09;3.7;;;1.5;;
28455;SDS011;15682;56.742;38.866;2023-07-13T02:46:09;3.6;;;1.8;;
28455;SDS011;15682;56.742;38.866;2023-07-13T02:48:09;3.7;;;1.9;;
28455;SDS011;15682;56.742;38.866;2023-07-13T02:50:10;4.1;;;1.8;;
28455;SDS011;15682;56.742;38.866;2023-07-13T02:52:10;3.5;;;1.7;;
28455;SDS011;15682;56.742;38.866;2023-07-13T02:54:10;9.1;;;1.8;;
28455;SDS011;15682;56.742;38.866;2023-07-13T02:56:11;3.3;;;1.7;;
28455;SDS011;15682;56.742;38.866;2023-07-13T02:58:11;7.8;;;2.3;;
28455;SDS011;15682;56.742;38.866;2023-07-13T03:00:11;7.5;;;2.7;;
28455;SDS011;15682;56.742;38.866;2023-07-13T03:02:11;4.1;;;1.8;;
28455;SDS011;15682;56.742;38.866;2023-07-13T03:04:12;5.4;;;1.8;;
28455;SDS011;15682;56.742;38.866;2023-07-13T03:06:12;8.9;;;2.1;;
28455;SDS011;15682;56.742;38.866;2023-07-13T03:08:12;5.5;;;1.6;;
28455;SDS011;15682;56.742;38.866;2023-07-13T03:10:12;3.4;;;1.6;;
28455;SDS011;15682;56.742;38.866;2023-07-13T03:12:13;7.0;;;1.8;;
28455;SDS011;15682;56.742;38.866;2023-07-13T03:14:13;6.9;;;1.6;;
28455;SDS011;15682;56.742;38.866;2023-07-13T03:16:14;4.4;;;1.5;;
28455;SDS011;15682;56.742;38.866;2023-07-13T03:18:13;3.5;;;1.5;;
28455;SDS011;15682;56.742;38.866;2023-07-13T03:20:14;3.9;;;1.8;;
28455;SDS011;15682;56.742;38.866;2023-07-13T03:22:14;5.4;;;1.5;;
28455;SDS011;15682;56.742;38.866;2023-07-13T03:24:14;2.6;;;1.4;;
28455;SDS011;15682;56.742;38.866;2023-07-13T03:26:15;2.3;;;1.6;;
28455;SDS011;15682;56.742;38.866;2023-07-13T03:28:15;4.6;;;1.7;;
28455;SDS011;15682;56.742;38.866;2023-07-13T03:30:15;3.2;;;1.4;;
28455;SDS011;15682;56.742;38.866;2023-07-13T03:32:15;2.5;;;1.5;;
28455;SDS011;15682;56.742;38.866;2023-07-13T03:34:16;3.0;;;1.5;;
28455;SDS011;15682;56.742;38.866;2023-07-13T03:36:17;3.6;;;1.5;;
28455;SDS011;15682;56.742;38.866;2023-07-13T03:38:16;3.2;;;1.7;;
28455;SDS011;15682;56.742;38.866;2023-07-13T03:40:16;3.1;;;1.6;;
28455;SDS011;15682;56.742;38.866;2023-07-13T03:42:17;3.1;;;1.5;;
28455;SDS011;15682;56.742;38.866;2023-07-13T03:44:17;3.5;;;1.7;;
28455;SDS011;15682;56.742;38.866;2023-07-13T03:46:17;3.8;;;1.7;;
28455;SDS011;15682;56.742;38.866;2023-07-13T03:48:17;2.5;;;1.6;;
28455;SDS011;15682;56.742;38.866;2023-07-13T03:50:18;3.7;;;1.7;;
28455;SDS011;15682;56.742;38.866;2023-07-13T03:52:18;5.4;;;1.8;;
28455;SDS011;15682;56.742;38.866;2023-07-13T03:54:18;4.4;;;1.9;;
28455;SDS011;15682;56.742;38.866;2023-07-13T03:56:19;5.9;;;2.4;;
28455;SDS011;15682;56.742;38.866;2023-07-13T03:58:27;5.6;;;2.1;;
28455;SDS011;15682;56.742;38.866;2023-07-13T04:00:19;4.0;;;1.8;;
28455;SDS011;15682;56.742;38.866;2023-07-13T04:02:19;4.0;;;1.9;;
28455;SDS011;15682;56.742;38.866;2023-07-13T04:04:20;3.8;;;1.7;;
28455;SDS011;15682;56.742;38.866;2023-07-13T04:06:21;2.7;;;1.8;;
28455;SDS011;15682;56.742;38.866;2023-07-13T04:08:20;5.1;;;2.0;;
28455;SDS011;15682;56.742;38.866;2023-07-13T04:10:20;4.3;;;2.1;;
28455;SDS011;15682;56.742;38.866;2023-07-13T04:12:21;5.7;;;1.9;;
28455;SDS011;15682;56.742;38.866;2023-07-13T04:14:21;4.4;;;1.8;;
28455;SDS011;15682;56.742;38.866;2023-07-13T04:16:21;6.0;;;2.2;;
28455;SDS011;15682;56.742;38.866;2023-07-13T04:18:21;4.8;;;1.9;;
28455;SDS011;15682;56.742;38.866;2023-07-13T04:20:22;6.0;;;2.1;;
28455;SDS011;15682;56.742;38.866;2023-07-13T04:22:22;5.9;;;2.0;;
28455;SDS011;15682;56.742;38.866;2023-07-13T04:24:22;3.7;;;2.0;;
28455;SDS011;15682;56.742;38.866;2023-07-13T04:26:23;4.7;;;2.4;;
28455;SDS011;15682;56.742;38.866;2023-07-13T04:28:23;4.6;;;2.0;;
28455;SDS011;15682;56.742;38.866;2023-07-13T04:30:23;6.4;;;2.3;;
28455;SDS011;15682;56.742;38.866;2023-07-13T04:32:23;6.2;;;1.9;;
28455;SDS011;15682;56.742;38.866;2023-07-13T04:34:24;5.5;;;1.9;;
28455;SDS011;15682;56.742;38.866;2023-07-13T04:36:24;6.0;;;2.1;;
28455;SDS011;15682;56.742;38.866;2023-07-13T04:38:25;7.6;;;1.9;;
28455;SDS011;15682;56.742;38.866;2023-07-13T04:40:25;5.6;;;1.9;;
28455;SDS011;15682;56.742;38.866;2023-07-13T04:42:25;3.6;;;1.9;;
28455;SDS011;15682;56.742;38.866;2023-07-13T04:44:25;6.6;;;1.9;;
28455;SDS011;15682;56.742;38.866;2023-07-13T04:46:25;4.0;;;2.0;;
28455;SDS011;15682;56.742;38.866;2023-07-13T04:48:26;6.4;;;2.4;;
28455;SDS011;15682;56.742;38.866;2023-07-13T04:50:26;6.9;;;2.5;;
28455;SDS011;15682;56.742;38.866;2023-07-13T04:52:26;6.6;;;2.2;;
28455;SDS011;15682;56.742;38.866;2023-07-13T04:54:26;8.7;;;2.3;;
28455;SDS011;15682;56.742;38.866;2023-07-13T04:56:27;5.8;;;2.3;;
28455;SDS011;15682;56.742;38.866;2023-07-13T04:58:27;4.1;;;2.2;;
28455;SDS011;15682;56.742;38.866;2023-07-13T05:00:27;5.1;;;1.9;;
28455;SDS011;15682;56.742;38.866;2023-07-13T05:02:27;8.0;;;3.0;;
28455;SDS011;15682;56.742;38.866;2023-07-13T05:04:28;21.5;;;6.1;;
28455;SDS011;15682;56.742;38.866;2023-07-13T05:06:28;9.8;;;2.7;;
28455;SDS011;15682;56.742;38.866;2023-07-13T05:08:28;7.0;;;2.1;;
28455;SDS011;15682;56.742;38.866;2023-07-13T05:10:29;3.9;;;1.9;;
28455;SDS011;15682;56.742;38.866;2023-07-13T05:12:29;5.1;;;1.9;;
28455;SDS011;15682;56.742;38.866;2023-07-13T05:14:29;4.3;;;2.1;;
28455;SDS011;15682;56.742;38.866;2023-07-13T05:16:30;3.3;;;2.1;;
28455;SDS011;15682;56.742;38.866;2023-07-13T05:18:30;5.6;;;1.9;;
28455;SDS011;15682;56.742;38.866;2023-07-13T05:20:30;5.5;;;2.0;;
28455;SDS011;15682;56.742;38.866;2023-07-13T05:22:30;5.3;;;2.4;;
28455;SDS011;15682;56.742;38.866;2023-07-13T05:24:31;6.6;;;2.1;;
28455;SDS011;15682;56.742;38.866;2023-07-13T05:26:31;7.8;;;2.2;;
28455;SDS011;15682;56.742;38.866;2023-07-13T05:28:31;5.0;;;1.8;;
28455;SDS011;15682;56.742;38.866;2023-07-13T05:30:31;8.7;;;2.0;;
28455;SDS011;15682;56.742;38.866;2023-07-13T05:34:32;6.4;;;2.4;;
28455;SDS011;15682;56.742;38.866;2023-07-13T05:36:32;7.4;;;2.2;;
28455;SDS011;15682;56.742;38.866;2023-07-13T05:38:33;9.2;;;2.2;;
28455;SDS011;15682;56.742;38.866;2023-07-13T05:40:33;7.9;;;2.4;;
28455;SDS011;15682;56.742;38.866;2023-07-13T05:42:33;4.9;;;2.1;;
28455;SDS011;15682;56.742;38.866;2023-07-13T05:44:33;7.2;;;2.3;;
28455;SDS011;15682;56.742;38.866;2023-07-13T05:46:34;8.1;;;2.1;;
28455;SDS011;15682;56.742;38.866;2023-07-13T05:48:34;6.5;;;2.4;;
28455;SDS011;15682;56.742;38.866;2023-07-13T05:50:34;9.3;;;2.4;;
28455;SDS011;15682;56.742;38.866;2023-07-13T05:52:35;6.4;;;2.3;;
28455;SDS011;15682;56.742;38.866;2023-07-13T05:54:35;5.0;;;1.9;;
28455;SDS011;15682;56.742;38.866;2023-07-13T05:56:35;4.1;;;2.1;;
28455;SDS011;15682;56.742;38.866;2023-07-13T05:58:36;6.2;;;2.4;;
28455;SDS011;15682;56.742;38.866;2023-07-13T06:00:36;11.7;;;2.4;;
28455;SDS011;15682;56.742;38.866;2023-07-13T06:02:36;6.9;;;2.2;;
28455;SDS011;15682;56.742;38.866;2023-07-13T06:04:36;5.9;;;2.0;;
28455;SDS011;15682;56.742;38.866;2023-07-13T06:06:37;5.4;;;2.2;;
28455;SDS011;15682;56.742;38.866;2023-07-13T06:08:37;6.1;;;2.3;;
28455;SDS011;15682;56.742;38.866;2023-07-13T06:10:37;5.6;;;2.3;;
28455;SDS011;15682;56.742;38.866;2023-07-13T06:12:38;7.2;;;2.4;;
28455;SDS011;15682;56.742;38.866;2023-07-13T06:14:38;7.7;;;2.3;;
28455;SDS011;15682;56.742;38.866;2023-07-13T06:16:39;5.8;;;2.7;;
28455;SDS011;15682;56.742;38.866;2023-07-13T06:18:39;11.6;;;3.6;;
28455;SDS011;15682;56.742;38.866;2023-07-13T06:20:39;8.0;;;2.7;;
28455;SDS011;15682;56.742;38.866;2023-07-13T06:22:39;7.9;;;2.8;;
28455;SDS011;15682;56.742;38.866;2023-07-13T06:24:39;7.9;;;2.8;;
28455;SDS011;15682;56.742;38.866;2023-07-13T06:26:40;7.3;;;2.5;;
28455;SDS011;15682;56.742;38.866;2023-07-13T06:28:40;6.2;;;2.5;;
28455;SDS011;15682;56.742;38.866;2023-07-13T06:30:40;7.4;;;2.6;;
28455;SDS011;15682;56.742;38.866;2023-07-13T06:32:40;4.3;;;2.3;;
28455;SDS011;15682;56.742;38.866;2023-07-13T06:34:41;7.3;;;2.9;;
28455;SDS011;15682;56.742;38.866;2023-07-13T06:36:41;5.6;;;2.2;;
28455;SDS011;15682;56.742;38.866;2023-07-13T06:38:41;6.5;;;2.5;;
28455;SDS011;15682;56.742;38.866;2023-07-13T06:40:42;5.7;;;2.3;;
28455;SDS011;15682;56.742;38.866;2023-07-13T06:42:42;5.1;;;2.4;;
28455;SDS011;15682;56.742;38.866;2023-07-13T06:44:42;4.8;;;2.4;;
28455;SDS011;15682;56.742;38.866;2023-07-13T06:46:43;7.1;;;2.7;;
28455;SDS011;15682;56.742;38.866;2023-07-13T06:48:43;10.1;;;2.3;;
28455;SDS011;15682;56.742;38.866;2023-07-13T06:50:43;6.6;;;2.8;;
28455;SDS011;15682;56.742;38.866;2023-07-13T06:52:43;5.3;;;2.1;;
28455;SDS011;15682;56.742;38.866;2023-07-13T06:54:44;6.6;;;2.5;;
28455;SDS011;15682;56.742;38.866;2023-07-13T06:56:44;6.0;;;2.6;;
28455;SDS011;15682;56.742;38.866;2023-07-13T06:58:44;6.6;;;2.3;;
28455;SDS011;15682;56.742;38.866;2023-07-13T07:00:45;5.5;;;2.2;;
28455;SDS011;15682;56.742;38.866;2023-07-13T07:02:45;5.8;;;2.1;;
28455;SDS011;15682;56.742;38.866;2023-07-13T07:04:45;6.5;;;2.5;;
28455;SDS011;15682;56.742;38.866;2023-07-13T07:06:46;8.4;;;2.7;;
28455;SDS011;15682;56.742;38.866;2023-07-13T07:08:46;8.0;;;2.5;;
28455;SDS011;15682;56.742;38.866;2023-07-13T07:10:46;6.6;;;2.6;;
28455;SDS011;15682;56.742;38.866;2023-07-13T07:12:47;8.4;;;2.4;;
28455;SDS011;15682;56.742;38.866;2023-07-13T07:14:47;6.5;;;2.3;;
28455;SDS011;15682;56.742;38.866;2023-07-13T07:16:47;5.2;;;2.4;;
28455;SDS011;15682;56.742;38.866;2023-07-13T07:18:48;8.6;;;2.6;;
28455;SDS011;15682;56.742;38.866;2023-07-13T07:20:48;8.8;;;2.6;;
28455;SDS011;15682;56.742;38.866;2023-07-13T07:22:48;5.9;;;2.3;;
28455;SDS011;15682;56.742;38.866;2023-07-13T07:24:48;7.4;;;2.6;;
28455;SDS011;15682;56.742;38.866;2023-07-13T07:26:49;5.8;;;2.7;;
28455;SDS011;15682;56.742;38.866;2023-07-13T07:28:49;12.8;;;2.8;;
28455;SDS011;15682;56.742;38.866;2023-07-13T07:30:52;5.5;;;2.5;;
28455;SDS011;15682;56.742;38.866;2023-07-13T07:32:50;7.7;;;2.6;;
28455;SDS011;15682;56.742;38.866;2023-07-13T07:34:50;8.3;;;2.8;;
28455;SDS011;15682;56.742;38.866;2023-07-13T07:36:50;9.3;;;2.9;;
28455;SDS011;15682;56.742;38.866;2023-07-13T07:38:51;8.1;;;3.3;;
28455;SDS011;15682;56.742;38.866;2023-07-13T07:40:51;7.6;;;2.8;;
28455;SDS011;15682;56.742;38.866;2023-07-13T07:42:51;6.0;;;2.5;;
28455;SDS011;15682;56.742;38.866;2023-07-13T07:44:52;7.2;;;3.0;;
28455;SDS011;15682;56.742;38.866;2023-07-13T07:46:52;13.3;;;3.8;;
28455;SDS011;15682;56.742;38.866;2023-07-13T07:48:52;7.9;;;3.1;;
28455;SDS011;15682;56.742;38.866;2023-07-13T07:50:53;8.7;;;3.2;;
28455;SDS011;15682;56.742;38.866;2023-07-13T07:52:53;8.1;;;2.7;;
28455;SDS011;15682;56.742;38.866;2023-07-13T07:54:53;6.4;;;2.5;;
28455;SDS011;15682;56.742;38.866;2023-07-13T07:56:53;4.1;;;2.4;;
28455;SDS011;15682;56.742;38.866;2023-07-13T07:58:54;6.4;;;2.4;;
28455;SDS011;15682;56.742;38.866;2023-07-13T08:00:54;6.7;;;3.0;;
28455;SDS011;15682;56.742;38.866;2023-07-13T08:02:54;6.9;;;2.7;;
28455;SDS011;15682;56.742;38.866;2023-07-13T08:04:55;7.2;;;2.7;;
28455;SDS011;15682;56.742;38.866;2023-07-13T08:06:55;9.9;;;2.5;;
28455;SDS011;15682;56.742;38.866;2023-07-13T08:08:55;6.6;;;2.6;;
28455;SDS011;15682;56.742;38.866;2023-07-13T08:10:56;5.3;;;2.6;;
28455;SDS011;15682;56.742;38.866;2023-07-13T08:12:56;10.0;;;3.4;;
28455;SDS011;15682;56.742;38.866;2023-07-13T08:14:56;6.1;;;2.8;;
28455;SDS011;15682;56.742;38.866;2023-07-13T08:16:56;6.0;;;2.3;;
28455;SDS011;15682;56.742;38.866;2023-07-13T08:18:57;9.3;;;3.0;;
28455;SDS011;15682;56.742;38.866;2023-07-13T08:20:57;4.8;;;2.7;;
28455;SDS011;15682;56.742;38.866;2023-07-13T08:22:57;5.7;;;2.6;;
28455;SDS011;15682;56.742;38.866;2023-07-13T08:24:58;7.9;;;2.6;;
28455;SDS011;15682;56.742;38.866;2023-07-13T08:26:58;8.8;;;3.1;;
28455;SDS011;15682;56.742;38.866;2023-07-13T08:28:58;6.1;;;2.2;;
28455;SDS011;15682;56.742;38.866;2023-07-13T08:31:00;8.5;;;2.8;;
28455;SDS011;15682;56.742;38.866;2023-07-13T08:32:59;6.6;;;2.7;;
28455;SDS011;15682;56.742;38.866;2023-07-13T08:34:59;8.7;;;3.4;;
28455;SDS011;15682;56.742;38.866;2023-07-13T08:36:59;6.7;;;2.8;;
28455;SDS011;15682;56.742;38.866;2023-07-13T08:38:59;5.0;;;2.6;;
28455;SDS011;15682;56.742;38.866;2023-07-13T08:41:00;5.7;;;2.8;;
28455;SDS011;15682;56.742;38.866;2023-07-13T08:43:00;7.3;;;2.3;;
28455;SDS011;15682;56.742;38.866;2023-07-13T08:45:04;9.6;;;3.1;;
28455;SDS011;15682;56.742;38.866;2023-07-13T08:47:01;7.3;;;2.9;;
28455;SDS011;15682;56.742;38.866;2023-07-13T08:49:02;8.7;;;2.9;;
28455;SDS011;15682;56.742;38.866;2023-07-13T08:51:03;6.4;;;2.8;;
28455;SDS011;15682;56.742;38.866;2023-07-13T08:53:02;8.2;;;3.0;;
28455;SDS011;15682;56.742;38.866;2023-07-13T08:55:04;6.5;;;3.0;;
28455;SDS011;15682;56.742;38.866;2023-07-13T08:57:03;7.7;;;3.1;;
28455;SDS011;15682;56.742;38.866;2023-07-13T08:59:05;6.2;;;3.2;;
28455;SDS011;15682;56.742;38.866;2023-07-13T09:01:06;6.3;;;2.9;;
28455;SDS011;15682;56.742;38.866;2023-07-13T09:03:03;18.5;;;4.8;;
28455;SDS011;15682;56.742;38.866;2023-07-13T09:05:04;8.6;;;3.3;;
28455;SDS011;15682;56.742;38.866;2023-07-13T09:07:05;4.7;;;2.6;;
28455;SDS011;15682;56.742;38.866;2023-07-13T09:09:06;7.7;;;3.2;;
28455;SDS011;15682;56.742;38.866;2023-07-13T09:11:07;6.9;;;3.3;;
28455;SDS011;15682;56.742;38.866;2023-07-13T09:13:12;6.2;;;3.0;;
28455;SDS011;15682;56.742;38.866;2023-07-13T09:15:05;5.9;;;2.7;;
28455;SDS011;15682;56.742;38.866;2023-07-13T09:17:08;8.3;;;3.8;;
28455;SDS011;15682;56.742;38.866;2023-07-13T09:19:05;8.6;;;3.0;;
28455;SDS011;15682;56.742;38.866;2023-07-13T09:21:07;8.6;;;3.4;;
28455;SDS011;15682;56.742;38.866;2023-07-13T09:23:07;9.9;;;3.4;;
28455;SDS011;15682;56.742;38.866;2023-07-13T09:25:11;7.3;;;3.2;;
28455;SDS011;15682;56.742;38.866;2023-07-13T09:27:12;6.7;;;3.1;;
28455;SDS011;15682;56.742;38.866;2023-07-13T09:29:09;7.2;;;3.8;;
28455;SDS011;15682;56.742;38.866;2023-07-13T09:31:09;7.1;;;3.5;;
28455;SDS011;15682;56.742;38.866;2023-07-13T09:33:07;10.2;;;3.8;;
28455;SDS011;15682;56.742;38.866;2023-07-13T09:35:09;9.3;;;3.4;;
28455;SDS011;15682;56.742;38.866;2023-07-13T09:37:08;7.0;;;3.2;;
28455;SDS011;15682;56.742;38.866;2023-07-13T09:39:10;7.9;;;3.4;;
28455;SDS011;15682;56.742;38.866;2023-07-13T09:41:18;9.3;;;3.9;;
28455;SDS011;15682;56.742;38.866;2023-07-13T09:43:10;7.7;;;3.1;;
28455;SDS011;15682;56.742;38.866;2023-07-13T09:45:09;7.6;;;3.4;;
28455;SDS011;15682;56.742;38.866;2023-07-13T09:47:15;5.7;;;2.8;;
28455;SDS011;15682;56.742;38.866;2023-07-13T09:49:10;7.8;;;3.1;;
28455;SDS011;15682;56.742;38.866;2023-07-13T09:51:13;7.0;;;3.5;;
28455;SDS011;15682;56.742;38.866;2023-07-13T09:53:11;5.1;;;2.9;;
28455;SDS011;15682;56.742;38.866;2023-07-13T09:55:23;9.5;;;3.1;;
28455;SDS011;15682;56.742;38.866;2023-07-13T09:57:12;5.2;;;2.7;;
28455;SDS011;15682;56.742;38.866;2023-07-13T09:59:18;6.4;;;2.6;;
28455;SDS011;15682;56.742;38.866;2023-07-13T10:01:11;5.6;;;2.5;;
28455;SDS011;15682;56.742;38.866;2023-07-13T10:03:17;5.0;;;2.7;;
28455;SDS011;15682;56.742;38.866;2023-07-13T10:05:14;7.2;;;2.8;;
28455;SDS011;15682;56.742;38.866;2023-07-13T10:07:12;4.8;;;2.9;;
28455;SDS011;15682;56.742;38.866;2023-07-13T10:09:14;9.0;;;3.1;;
28455;SDS011;15682;56.742;38.866;2023-07-13T10:11:15;6.7;;;3.2;;
28455;SDS011;15682;56.742;38.866;2023-07-13T10:13:23;5.4;;;3.0;;
28455;SDS011;15682;56.742;38.866;2023-07-13T10:15:14;5.3;;;3.1;;
28455;SDS011;15682;56.742;38.866;2023-07-13T10:17:13;5.8;;;3.1;;
28455;SDS011;15682;56.742;38.866;2023-07-13T10:19:15;5.3;;;2.8;;
28455;SDS011;15682;56.742;38.866;2023-07-13T10:21:15;4.1;;;2.8;;
28455;SDS011;15682;56.742;38.866;2023-07-13T10:23:15;6.7;;;3.1;;
28455;SDS011;15682;56.742;38.866;2023-07-13T10:25:16;9.0;;;3.0;;
28455;SDS011;15682;56.742;38.866;2023-07-13T10:27:16;7.6;;;3.3;;
28455;SDS011;15682;56.742;38.866;2023-07-13T10:29:15;5.6;;;3.1;;
28455;SDS011;15682;56.742;38.866;2023-07-13T10:31:15;6.3;;;2.8;;
28455;SDS011;15682;56.742;38.866;2023-07-13T10:33:16;5.4;;;2.6;;
28455;SDS011;15682;56.742;38.866;2023-07-13T10:35:16;10.5;;;3.5;;
28455;SDS011;15682;56.742;38.866;2023-07-13T10:37:18;8.2;;;3.3;;
28455;SDS011;15682;56.742;38.866;2023-07-13T10:39:17;8.5;;;3.4;;
28455;SDS011;15682;56.742;38.866;2023-07-13T10:41:17;8.0;;;3.0;;
28455;SDS011;15682;56.742;38.866;2023-07-13T10:43:18;6.2;;;3.0;;
28455;SDS011;15682;56.742;38.866;2023-07-13T10:45:18;5.7;;;2.9;;
28455;SDS011;15682;56.742;38.866;2023-07-13T10:47:18;7.6;;;3.5;;
28455;SDS011;15682;56.742;38.866;2023-07-13T10:49:18;5.1;;;3.0;;
28455;SDS011;15682;56.742;38.866;2023-07-13T10:51:18;6.8;;;3.0;;
28455;SDS011;15682;56.742;38.866;2023-07-13T10:53:20;7.0;;;3.1;;
28455;SDS011;15682;56.742;38.866;2023-07-13T10:57:19;4.6;;;2.9;;
28455;SDS011;15682;56.742;38.866;2023-07-13T10:59:23;5.5;;;3.1;;
28455;SDS011;15682;56.742;38.866;2023-07-13T11:01:19;6.5;;;2.9;;
28455;SDS011;15682;56.742;38.866;2023-07-13T11:03:20;6.0;;;3.4;;
28455;SDS011;15682;56.742;38.866;2023-07-13T11:05:25;6.5;;;3.0;;
28455;SDS011;15682;56.742;38.866;2023-07-13T11:07:21;6.2;;;3.3;;
28455;SDS011;15682;56.742;38.866;2023-07-13T11:13:39;8.4;;;3.5;;
28455;SDS011;15682;56.742;38.866;2023-07-13T11:17:35;7.5;;;3.4;;
28455;SDS011;15682;56.742;38.866;2023-07-13T11:19:25;7.4;;;3.7;;
28455;SDS011;15682;56.742;38.866;2023-07-13T11:21:23;8.5;;;3.5;;
28455;SDS011;15682;56.742;38.866;2023-07-13T11:23:30;7.4;;;3.9;;
28455;SDS011;15682;56.742;38.866;2023-07-13T11:25:25;6.7;;;3.6;;
28455;SDS011;15682;56.742;38.866;2023-07-13T11:27:30;6.2;;;3.3;;
28455;SDS011;15682;56.742;38.866;2023-07-13T11:29:25;5.9;;;3.4;;
28455;SDS011;15682;56.742;38.866;2023-07-13T11:31:24;8.5;;;3.3;;
28455;SDS011;15682;56.742;38.866;2023-07-13T11:33:24;5.9;;;3.7;;
28455;SDS011;15682;56.742;38.866;2023-07-13T11:35:25;6.0;;;3.4;;
28455;SDS011;15682;56.742;38.866;2023-07-13T11:37:24;5.1;;;2.9;;
28455;SDS011;15682;56.742;38.866;2023-07-13T11:39:26;6.3;;;2.9;;
28455;SDS011;15682;56.742;38.866;2023-07-13T11:41:26;6.9;;;2.8;;
28455;SDS011;15682;56.742;38.866;2023-07-13T11:43:25;5.6;;;2.9;;
28455;SDS011;15682;56.742;38.866;2023-07-13T11:45:25;7.3;;;3.0;;
28455;SDS011;15682;56.742;38.866;2023-07-13T11:47:26;5.2;;;2.8;;
28455;SDS011;15682;56.742;38.866;2023-07-13T11:49:26;5.2;;;2.7;;
28455;SDS011;15682;56.742;38.866;2023-07-13T11:51:28;9.1;;;2.8;;
28455;SDS011;15682;56.742;38.866;2023-07-13T11:53:27;3.9;;;2.6;;
28455;SDS011;15682;56.742;38.866;2023-07-13T11:55:27;5.3;;;2.7;;
28455;SDS011;15682;56.742;38.866;2023-07-13T11:57:27;4.8;;;2.7;;
28455;SDS011;15682;56.742;38.866;2023-07-13T11:59:28;4.7;;;2.7;;
28455;SDS011;15682;56.742;38.866;2023-07-13T12:01:29;5.6;;;2.7;;
28455;SDS011;15682;56.742;38.866;2023-07-13T12:03:28;4.4;;;2.7;;
28455;SDS011;15682;56.742;38.866;2023-07-13T12:05:28;6.5;;;2.4;;
28455;SDS011;15682;56.742;38.866;2023-07-13T12:07:29;8.0;;;3.1;;
28455;SDS011;15682;56.742;38.866;2023-07-13T12:09:29;6.3;;;3.0;;
28455;SDS011;15682;56.742;38.866;2023-07-13T12:11:29;6.7;;;2.8;;
28455;SDS011;15682;56.742;38.866;2023-07-13T12:13:29;5.6;;;2.5;;
28455;SDS011;15682;56.742;38.866;2023-07-13T12:15:32;9.0;;;2.8;;
28455;SDS011;15682;56.742;38.866;2023-07-13T12:17:30;6.5;;;2.8;;
28455;SDS011;15682;56.742;38.866;2023-07-13T12:19:30;5.1;;;2.6;;
28455;SDS011;15682;56.742;38.866;2023-07-13T12:21:31;5.5;;;2.9;;
28455;SDS011;15682;56.742;38.866;2023-07-13T12:23:31;5.6;;;2.7;;
28455;SDS011;15682;56.742;38.866;2023-07-13T12:25:31;4.6;;;2.8;;
28455;SDS011;15682;56.742;38.866;2023-07-13T12:27:31;5.5;;;3.0;;